createdAt,value
2019-02-08T00:00:39.817Z,27.25
2019-02-08T00:01:39.871Z,27.27
2019-02-08T00:02:39.822Z,27.32
2019-02-08T00:03:39.826Z,27.24
2019-02-08T00:04:39.831Z,27.22
2019-02-08T00:05:39.833Z,27.18
2019-02-08T00:06:39.841Z,27.25
2019-02-08T00:07:39.838Z,27.21
2019-02-08T00:08:39.850Z,27.22
2019-02-08T00:09:39.850Z,27.25
2019-02-08T00:10:39.849Z,27.25
2019-02-08T00:11:39.852Z,27.24
2019-02-08T00:12:39.857Z,27.27
2019-02-08T00:13:39.860Z,27.21
2019-02-08T00:14:39.862Z,27.28
2019-02-08T00:15:39.865Z,27.25
2019-02-08T00:16:39.879Z,27.27
2019-02-08T00:17:39.872Z,27.25
2019-02-08T00:18:39.876Z,27.22
2019-02-08T00:19:39.879Z,27.24
2019-02-08T00:20:39.886Z,27.22
2019-02-08T00:21:39.889Z,27.19
2019-02-08T00:22:39.891Z,27.19
2019-02-08T00:23:39.892Z,27.24
2019-02-08T00:24:39.901Z,27.27
2019-02-08T00:25:39.901Z,27.22
2019-02-08T00:26:39.910Z,27.24
2019-02-08T00:27:39.902Z,27.24
2019-02-08T00:28:39.906Z,27.22
2019-02-08T00:29:39.911Z,27.27
2019-02-08T00:30:39.913Z,27.27
2019-02-08T00:31:39.935Z,27.27
2019-02-08T00:32:39.921Z,27.24
2019-02-08T00:33:39.977Z,27.22
2019-02-08T00:34:39.927Z,27.24
2019-02-08T00:35:39.930Z,27.25
2019-02-08T00:36:39.934Z,27.21
2019-02-08T00:37:39.936Z,27.22
2019-02-08T00:38:39.940Z,27.24
2019-02-08T00:39:39.942Z,27.22
2019-02-08T00:40:39.946Z,27.27
2019-02-08T00:41:39.949Z,27.25
2019-02-08T00:42:39.950Z,27.22
2019-02-08T00:43:40.056Z,27.28
2019-02-08T00:44:39.959Z,27.22
2019-02-08T00:45:39.962Z,27.28
2019-02-08T00:46:39.965Z,27.27
2019-02-08T00:47:39.969Z,27.19
2019-02-08T00:48:39.971Z,27.22
2019-02-08T00:49:39.975Z,27.25
2019-02-08T00:50:39.978Z,27.24
2019-02-08T00:51:39.981Z,27.24
2019-02-08T00:52:39.985Z,27.25
2019-02-08T00:53:39.989Z,27.25
2019-02-08T00:54:39.990Z,27.21
2019-02-08T00:55:39.993Z,27.24
2019-02-08T00:56:40.053Z,27.27
2019-02-08T00:57:40.000Z,27.22
2019-02-08T00:58:40.053Z,27.19
2019-02-08T00:59:40.006Z,27.22
2019-02-08T01:00:40.010Z,27.28
2019-02-08T01:01:40.013Z,27.18
2019-02-08T01:02:40.017Z,27.21
2019-02-08T01:03:40.070Z,27.18
2019-02-08T01:04:40.037Z,27.24
2019-02-08T01:05:40.029Z,27.27
2019-02-08T01:06:40.030Z,27.24
2019-02-08T01:07:40.032Z,27.27
2019-02-08T01:08:40.036Z,27.32
2019-02-08T01:09:40.039Z,27.21
2019-02-08T01:10:40.046Z,27.21
2019-02-08T01:11:40.049Z,27.24
2019-02-08T01:12:40.048Z,27.28
2019-02-08T01:13:40.053Z,27.29
2019-02-08T01:14:40.070Z,27.22
2019-02-08T01:15:40.058Z,27.21
2019-02-08T01:16:40.063Z,27.24
2019-02-08T01:17:40.065Z,27.27
2019-02-08T01:18:40.067Z,27.19
2019-02-08T01:19:40.068Z,27.21
2019-02-08T01:20:40.074Z,27.21
2019-02-08T01:21:40.077Z,27.25
2019-02-08T01:22:40.080Z,27.24
2019-02-08T01:23:41.478Z,27.19
2019-02-08T01:24:40.088Z,27.24
2019-02-08T01:25:40.090Z,27.21
2019-02-08T01:26:40.093Z,27.21
2019-02-08T01:27:40.097Z,27.19
2019-02-08T01:28:40.107Z,27.17
2019-02-08T01:29:40.108Z,27.25
2019-02-08T01:30:40.105Z,27.21
2019-02-08T01:31:40.110Z,27.18
2019-02-08T01:32:40.112Z,27.31
2019-02-08T01:33:40.116Z,27.25
2019-02-08T01:34:40.121Z,27.24
2019-02-08T01:35:40.123Z,27.21
2019-02-08T01:36:40.126Z,27.24
2019-02-08T01:37:40.128Z,27.25
2019-02-08T01:38:40.130Z,27.24
2019-02-08T01:39:40.134Z,27.21
2019-02-08T01:40:40.140Z,27.24
2019-02-08T01:41:40.141Z,27.27
2019-02-08T01:42:40.143Z,27.24
2019-02-08T01:43:40.147Z,27.21
2019-02-08T01:44:40.149Z,27.21
2019-02-08T01:45:40.159Z,27.25
2019-02-08T01:46:40.156Z,27.24
2019-02-08T01:47:40.160Z,27.21
2019-02-08T01:48:40.163Z,27.24
2019-02-08T01:49:40.166Z,27.28
2019-02-08T01:50:40.173Z,27.19
2019-02-08T01:51:40.171Z,27.25
2019-02-08T01:52:40.178Z,27.28
2019-02-08T01:53:40.180Z,27.27
2019-02-08T01:54:40.181Z,27.21
2019-02-08T01:55:40.188Z,27.18
2019-02-08T01:56:40.187Z,27.28
2019-02-08T01:57:40.194Z,27.27
2019-02-08T01:58:40.194Z,27.21
2019-02-08T01:59:40.199Z,27.19
2019-02-08T02:00:40.201Z,27.19
2019-02-08T02:01:40.205Z,27.25
2019-02-08T02:02:40.206Z,27.25
2019-02-08T02:03:40.210Z,27.21
2019-02-08T02:04:40.216Z,27.24
2019-02-08T02:05:40.218Z,27.24
2019-02-08T02:06:40.222Z,27.22
2019-02-08T02:07:40.223Z,27.17
2019-02-08T02:08:40.234Z,27.19
2019-02-08T02:09:40.230Z,27.22
2019-02-08T02:10:40.238Z,27.19
2019-02-08T02:11:40.238Z,27.22
2019-02-08T02:12:40.238Z,27.22
2019-02-08T02:13:40.248Z,27.25
2019-02-08T02:14:40.246Z,27.18
2019-02-08T02:15:40.249Z,27.24
2019-02-08T02:16:40.256Z,27.17
2019-02-08T02:17:40.254Z,27.25
2019-02-08T02:18:40.258Z,27.22
2019-02-08T02:19:40.261Z,27.25
2019-02-08T02:20:40.265Z,27.25
2019-02-08T02:21:40.267Z,27.19
2019-02-08T02:22:40.270Z,27.24
2019-02-08T02:23:40.276Z,27.27
2019-02-08T02:24:40.277Z,27.24
2019-02-08T02:25:40.280Z,27.24
2019-02-08T02:26:40.284Z,27.22
2019-02-08T02:27:40.290Z,27.25
2019-02-08T02:28:40.289Z,27.25
2019-02-08T02:29:40.293Z,27.22
2019-02-08T02:30:40.295Z,27.27
2019-02-08T02:31:40.300Z,27.21
2019-02-08T02:32:40.303Z,27.25
2019-02-08T02:33:40.310Z,27.21
2019-02-08T02:34:40.309Z,27.22
2019-02-08T02:35:40.312Z,27.18
2019-02-08T02:36:40.323Z,27.22
2019-02-08T02:37:40.327Z,27.21
2019-02-08T02:38:40.321Z,27.21
2019-02-08T02:39:40.324Z,27.22
2019-02-08T02:40:40.327Z,27.19
2019-02-08T02:41:40.330Z,27.19
2019-02-08T02:42:40.335Z,27.19
2019-02-08T02:43:40.338Z,27.22
2019-02-08T02:44:40.342Z,27.19
2019-02-08T02:45:40.344Z,27.24
2019-02-08T02:46:40.346Z,27.25
2019-02-08T02:47:40.350Z,27.25
2019-02-08T02:48:40.353Z,27.21
2019-02-08T02:49:40.358Z,27.21
2019-02-08T02:50:40.361Z,27.22
2019-02-08T02:51:40.364Z,27.21
2019-02-08T02:52:40.366Z,27.21
2019-02-08T02:53:40.370Z,27.19
2019-02-08T02:54:40.372Z,27.22
2019-02-08T02:55:40.376Z,27.14
2019-02-08T02:56:40.381Z,27.19
2019-02-08T02:57:40.384Z,27.19
2019-02-08T02:58:40.384Z,27.22
2019-02-08T02:59:40.387Z,27.19
2019-02-08T03:00:40.392Z,27.25
2019-02-08T03:01:40.393Z,27.18
2019-02-08T03:02:40.400Z,27.22
2019-02-08T03:03:40.401Z,27.14
2019-02-08T03:04:40.404Z,27.21
2019-02-08T03:05:40.408Z,27.21
2019-02-08T03:06:40.411Z,27.25
2019-02-08T03:07:40.412Z,27.21
2019-02-08T03:08:40.417Z,27.22
2019-02-08T03:09:40.420Z,27.21
2019-02-08T03:10:40.421Z,27.17
2019-02-08T03:11:40.426Z,27.21
2019-02-08T03:12:40.433Z,27.14
2019-02-08T03:13:40.433Z,27.10
2019-02-08T03:14:40.434Z,27.25
2019-02-08T03:15:40.438Z,27.19
2019-02-08T03:16:40.441Z,27.17
2019-02-08T03:17:40.445Z,27.25
2019-02-08T03:18:40.445Z,27.22
2019-02-08T03:19:40.450Z,27.24
2019-02-08T03:20:40.457Z,27.19
2019-02-08T03:21:40.458Z,27.22
2019-02-08T03:22:40.459Z,27.17
2019-02-08T03:23:40.462Z,27.14
2019-02-08T03:24:40.466Z,27.19
2019-02-08T03:25:40.523Z,27.21
2019-02-08T03:26:40.478Z,27.22
2019-02-08T03:27:40.475Z,27.12
2019-02-08T03:28:40.479Z,27.18
2019-02-08T03:29:40.482Z,27.17
2019-02-08T03:30:40.489Z,27.17
2019-02-08T03:31:40.489Z,27.24
2019-02-08T03:32:40.499Z,27.21
2019-02-08T03:33:40.495Z,27.14
2019-02-08T03:34:40.497Z,27.22
2019-02-08T03:35:40.506Z,27.21
2019-02-08T03:36:40.502Z,27.13
2019-02-08T03:37:40.509Z,27.18
2019-02-08T03:38:40.509Z,27.21
2019-02-08T03:39:40.514Z,27.24
2019-02-08T03:40:40.515Z,27.14
2019-02-08T03:41:40.525Z,27.21
2019-02-08T03:42:40.522Z,27.21
2019-02-08T03:43:40.526Z,27.24
2019-02-08T03:44:40.529Z,27.21
2019-02-08T03:45:40.548Z,27.19
2019-02-08T03:46:40.535Z,27.18
2019-02-08T03:47:40.539Z,27.25
2019-02-08T03:48:41.050Z,27.22
2019-02-08T03:49:40.544Z,27.18
2019-02-08T03:50:40.546Z,27.18
2019-02-08T03:51:40.552Z,27.19
2019-02-08T03:52:40.553Z,27.19
2019-02-08T03:53:40.558Z,27.22
2019-02-08T03:54:40.560Z,27.17
2019-02-08T03:55:40.591Z,27.14
2019-02-08T03:56:40.567Z,27.14
2019-02-08T03:57:40.570Z,27.22
2019-02-08T03:58:40.572Z,27.17
2019-02-08T03:59:40.575Z,27.22
2019-02-08T04:00:40.583Z,27.13
2019-02-08T04:01:40.582Z,27.21
2019-02-08T04:02:40.585Z,27.14
2019-02-08T04:03:40.587Z,27.19
2019-02-08T04:04:40.591Z,27.19
2019-02-08T04:05:40.594Z,27.24
2019-02-08T04:06:40.597Z,27.18
2019-02-08T04:07:40.601Z,27.19
2019-02-08T04:08:40.603Z,27.27
2019-02-08T04:09:40.609Z,27.19
2019-02-08T04:10:40.609Z,27.21
2019-02-08T04:11:40.616Z,27.17
2019-02-08T04:12:40.619Z,27.17
2019-02-08T04:13:40.669Z,27.19
2019-02-08T04:14:40.621Z,27.17
2019-02-08T04:15:40.625Z,27.25
2019-02-08T04:16:40.627Z,27.14
2019-02-08T04:17:40.634Z,27.21
2019-02-08T04:18:42.542Z,27.17
2019-02-08T04:19:40.649Z,27.19
2019-02-08T04:20:40.647Z,27.19
2019-02-08T04:21:40.645Z,27.24
2019-02-08T04:22:40.649Z,27.12
2019-02-08T04:23:40.650Z,27.17
2019-02-08T04:24:40.654Z,27.24
2019-02-08T04:25:40.662Z,27.21
2019-02-08T04:26:40.659Z,27.19
2019-02-08T04:27:40.719Z,27.22
2019-02-08T04:28:40.665Z,27.17
2019-02-08T04:29:40.670Z,27.17
2019-02-08T04:30:40.671Z,27.22
2019-02-08T04:31:42.393Z,27.19
2019-02-08T04:32:40.677Z,27.19
2019-02-08T04:33:40.682Z,27.24
2019-02-08T04:34:40.684Z,27.10
2019-02-08T04:35:40.687Z,27.25
2019-02-08T04:36:40.692Z,27.10
2019-02-08T04:37:40.696Z,27.21
2019-02-08T04:38:40.697Z,27.18
2019-02-08T04:39:40.705Z,27.21
2019-02-08T04:40:40.703Z,27.21
2019-02-08T04:41:40.709Z,27.13
2019-02-08T04:42:40.707Z,27.14
2019-02-08T04:43:40.761Z,27.24
2019-02-08T04:44:40.794Z,27.25
2019-02-08T04:45:40.720Z,27.19
2019-02-08T04:46:40.727Z,27.14
2019-02-08T04:47:40.725Z,27.13
2019-02-08T04:48:40.779Z,27.18
2019-02-08T04:49:40.732Z,27.14
2019-02-08T04:50:40.736Z,27.14
2019-02-08T04:51:40.760Z,27.19
2019-02-08T04:52:40.741Z,27.24
2019-02-08T04:53:40.744Z,27.22
2019-02-08T04:54:40.747Z,27.18
2019-02-08T04:55:40.755Z,27.14
2019-02-08T04:56:40.752Z,27.14
2019-02-08T04:57:40.757Z,27.18
2019-02-08T04:58:40.791Z,27.19
2019-02-08T04:59:40.762Z,27.17
2019-02-08T05:00:40.819Z,27.17
2019-02-08T05:01:40.768Z,27.14
2019-02-08T05:02:40.823Z,27.13
2019-02-08T05:03:40.776Z,27.17
2019-02-08T05:04:40.815Z,27.22
2019-02-08T05:05:40.783Z,27.13
2019-02-08T05:06:40.823Z,27.13
2019-02-08T05:07:40.807Z,27.13
2019-02-08T05:08:40.892Z,27.13
2019-02-08T05:09:42.482Z,27.09
2019-02-08T05:10:40.796Z,27.18
2019-02-08T05:11:40.802Z,27.12
2019-02-08T05:12:40.803Z,27.10
2019-02-08T05:13:40.806Z,27.09
2019-02-08T05:14:40.814Z,27.21
2019-02-08T05:15:40.822Z,27.09
2019-02-08T05:16:40.816Z,27.10
2019-02-08T05:17:40.822Z,27.14
2019-02-08T05:18:40.823Z,27.14
2019-02-08T05:19:40.827Z,27.10
2019-02-08T05:20:40.829Z,27.18
2019-02-08T05:21:40.832Z,27.10
2019-02-08T05:22:40.834Z,27.10
2019-02-08T05:23:40.839Z,27.18
2019-02-08T05:24:45.773Z,27.12
2019-02-08T05:25:40.846Z,27.13
2019-02-08T05:26:40.847Z,27.12
2019-02-08T05:27:40.851Z,27.13
2019-02-08T05:28:40.853Z,27.18
2019-02-08T05:29:40.858Z,27.17
2019-02-08T05:30:40.860Z,27.19
2019-02-08T05:31:40.870Z,27.25
2019-02-08T05:32:40.867Z,27.24
2019-02-08T05:33:40.870Z,27.19
2019-02-08T05:34:40.878Z,27.24
2019-02-08T05:35:40.876Z,27.21
2019-02-08T05:36:40.879Z,27.19
2019-02-08T05:37:40.881Z,27.24
2019-02-08T05:38:40.884Z,27.28
2019-02-08T05:39:40.887Z,27.17
2019-02-08T05:40:40.895Z,27.28
2019-02-08T05:41:40.899Z,27.22
2019-02-08T05:42:40.951Z,27.25
2019-02-08T05:43:40.900Z,27.25
2019-02-08T05:44:40.904Z,27.21
2019-02-08T05:45:40.958Z,27.24
2019-02-08T05:46:40.909Z,27.24
2019-02-08T05:47:40.912Z,27.24
2019-02-08T05:48:40.916Z,27.24
2019-02-08T05:49:40.920Z,27.25
2019-02-08T05:50:40.927Z,27.27
2019-02-08T05:51:40.925Z,27.25
2019-02-08T05:52:40.929Z,27.24
2019-02-08T05:53:40.932Z,27.22
2019-02-08T05:54:40.934Z,27.29
2019-02-08T05:55:40.948Z,27.22
2019-02-08T05:56:40.951Z,27.21
2019-02-08T05:57:40.994Z,27.22
2019-02-08T05:58:41.021Z,27.27
2019-02-08T05:59:40.950Z,27.37
2019-02-08T06:00:41.010Z,27.22
2019-02-08T06:01:40.960Z,27.32
2019-02-08T06:02:40.961Z,27.25
2019-02-08T06:03:40.963Z,27.28
2019-02-08T06:04:40.977Z,27.24
2019-02-08T06:05:40.984Z,27.28
2019-02-08T06:06:40.975Z,27.32
2019-02-08T06:07:40.982Z,27.32
2019-02-08T06:08:40.980Z,27.32
2019-02-08T06:09:40.982Z,27.29
2019-02-08T06:10:40.996Z,27.29
2019-02-08T06:11:40.989Z,27.32
2019-02-08T06:12:40.995Z,27.32
2019-02-08T06:13:41.096Z,27.36
2019-02-08T06:14:40.997Z,27.37
2019-02-08T06:15:41.001Z,27.36
2019-02-08T06:16:41.010Z,27.29
2019-02-08T06:17:41.011Z,27.36
2019-02-08T06:18:41.010Z,27.34
2019-02-08T06:19:41.013Z,27.28
2019-02-08T06:20:41.017Z,27.36
2019-02-08T06:21:41.020Z,27.36
2019-02-08T06:22:41.025Z,27.36
2019-02-08T06:23:41.127Z,27.34
2019-02-08T06:24:41.035Z,27.32
2019-02-08T06:25:41.037Z,27.34
2019-02-08T06:26:41.039Z,27.29
2019-02-08T06:27:41.040Z,27.36
2019-02-08T06:28:41.042Z,27.37
2019-02-08T06:29:41.045Z,27.29
2019-02-08T06:30:41.059Z,27.36
2019-02-08T06:31:41.051Z,27.32
2019-02-08T06:32:41.056Z,27.37
2019-02-08T06:33:41.109Z,27.31
2019-02-08T06:34:41.439Z,27.32
2019-02-08T06:35:41.116Z,27.39
2019-02-08T06:36:41.068Z,27.32
2019-02-08T06:37:44.287Z,27.32
2019-02-08T06:38:41.078Z,27.32
2019-02-08T06:39:41.077Z,27.37
2019-02-08T06:40:41.131Z,27.37
2019-02-08T06:41:41.085Z,27.29
2019-02-08T06:42:41.087Z,27.34
2019-02-08T06:43:41.097Z,27.34
2019-02-08T06:44:41.094Z,27.31
2019-02-08T06:45:41.100Z,27.34
2019-02-08T06:46:41.100Z,27.44
2019-02-08T06:47:41.104Z,27.41
2019-02-08T06:48:41.108Z,27.41
2019-02-08T06:49:41.122Z,27.46
2019-02-08T06:50:41.114Z,27.46
2019-02-08T06:51:41.116Z,27.39
2019-02-08T06:52:41.119Z,27.49
2019-02-08T06:53:41.123Z,27.49
2019-02-08T06:54:41.128Z,27.39
2019-02-08T06:55:41.180Z,27.41
2019-02-08T06:56:41.132Z,27.43
2019-02-08T06:57:41.137Z,27.44
2019-02-08T06:58:41.139Z,27.47
2019-02-08T06:59:41.141Z,27.46
2019-02-08T07:00:41.148Z,27.44
2019-02-08T07:01:41.500Z,27.40
2019-02-08T07:02:41.153Z,27.40
2019-02-08T07:03:41.166Z,27.40
2019-02-08T07:04:41.159Z,27.43
2019-02-08T07:05:41.160Z,27.44
2019-02-08T07:06:41.164Z,27.43
2019-02-08T07:07:41.218Z,27.40
2019-02-08T07:08:41.222Z,27.46
2019-02-08T07:09:41.275Z,27.46
2019-02-08T07:10:41.488Z,27.47
2019-02-08T07:11:41.180Z,27.46
2019-02-08T07:12:41.183Z,27.40
2019-02-08T07:13:41.289Z,27.49
2019-02-08T07:14:41.192Z,27.50
2019-02-08T07:15:41.194Z,27.39
2019-02-08T07:16:41.200Z,27.46
2019-02-08T07:17:41.201Z,27.51
2019-02-08T07:18:41.204Z,27.50
2019-02-08T07:19:41.212Z,27.50
2019-02-08T07:20:41.214Z,27.43
2019-02-08T07:21:41.218Z,27.55
2019-02-08T07:22:41.219Z,27.46
2019-02-08T07:23:41.321Z,27.49
2019-02-08T07:24:41.225Z,27.50
2019-02-08T07:25:41.227Z,27.47
2019-02-08T07:26:41.230Z,27.55
2019-02-08T07:27:41.233Z,27.59
2019-02-08T07:28:41.237Z,27.49
2019-02-08T07:29:41.241Z,27.50
2019-02-08T07:30:41.243Z,27.50
2019-02-08T07:31:41.245Z,27.50
2019-02-08T07:32:41.255Z,27.60
2019-02-08T07:33:41.404Z,27.55
2019-02-08T07:34:41.260Z,27.62
2019-02-08T07:35:41.260Z,27.54
2019-02-08T07:36:41.266Z,27.55
2019-02-08T07:37:41.267Z,27.57
2019-02-08T07:38:41.272Z,27.54
2019-02-08T07:39:41.274Z,27.62
2019-02-08T07:40:41.275Z,27.54
2019-02-08T07:41:41.281Z,27.59
2019-02-08T07:42:41.285Z,27.57
2019-02-08T07:43:41.290Z,27.57
2019-02-08T07:44:41.290Z,27.54
2019-02-08T07:45:41.299Z,27.59
2019-02-08T07:46:41.296Z,27.57
2019-02-08T07:47:41.300Z,27.60
2019-02-08T07:48:41.353Z,27.55
2019-02-08T07:49:41.307Z,27.54
2019-02-08T07:50:41.309Z,27.62
2019-02-08T07:51:41.312Z,27.59
2019-02-08T07:52:41.317Z,27.59
2019-02-08T07:53:41.322Z,27.59
2019-02-08T07:54:41.322Z,27.62
2019-02-08T07:55:41.326Z,27.51
2019-02-08T07:56:41.330Z,27.59
2019-02-08T07:57:41.335Z,27.59
2019-02-08T07:58:41.385Z,27.63
2019-02-08T07:59:41.340Z,27.67
2019-02-08T08:00:41.344Z,27.69
2019-02-08T08:01:41.424Z,27.66
2019-02-08T08:02:41.350Z,27.60
2019-02-08T08:03:41.356Z,27.62
2019-02-08T08:04:41.359Z,27.62
2019-02-08T08:05:41.361Z,27.63
2019-02-08T08:06:41.429Z,27.60
2019-02-08T08:07:41.367Z,27.63
2019-02-08T08:08:41.571Z,27.60
2019-02-08T08:09:41.424Z,27.65
2019-02-08T08:10:41.377Z,27.72
2019-02-08T08:11:41.418Z,27.65
2019-02-08T08:12:41.385Z,27.67
2019-02-08T08:13:41.492Z,27.67
2019-02-08T08:14:41.393Z,27.72
2019-02-08T08:15:41.444Z,27.74
2019-02-08T08:16:41.400Z,27.74
2019-02-08T08:17:41.407Z,27.74
2019-02-08T08:18:41.410Z,27.72
2019-02-08T08:19:41.408Z,27.77
2019-02-08T08:20:41.411Z,27.75
2019-02-08T08:21:41.414Z,27.69
2019-02-08T08:22:41.416Z,27.79
2019-02-08T08:23:41.421Z,27.69
2019-02-08T08:24:41.426Z,27.70
2019-02-08T08:25:41.480Z,27.75
2019-02-08T08:26:41.466Z,27.78
2019-02-08T08:27:41.434Z,27.81
2019-02-08T08:28:41.441Z,27.79
2019-02-08T08:29:41.442Z,27.75
2019-02-08T08:30:41.446Z,27.79
2019-02-08T08:31:41.449Z,27.75
2019-02-08T08:32:41.451Z,27.78
2019-02-08T08:33:41.506Z,27.81
2019-02-08T08:34:41.458Z,27.74
2019-02-08T08:35:41.513Z,27.81
2019-02-08T08:36:41.466Z,27.81
2019-02-08T08:37:41.471Z,27.77
2019-02-08T08:38:41.474Z,27.70
2019-02-08T08:39:41.477Z,27.74
2019-02-08T08:40:41.489Z,27.78
2019-02-08T08:41:41.490Z,27.78
2019-02-08T08:42:41.490Z,27.74
2019-02-08T08:43:41.493Z,27.74
2019-02-08T08:44:41.496Z,27.84
2019-02-08T08:45:41.498Z,27.77
2019-02-08T08:46:41.499Z,27.77
2019-02-08T08:47:41.506Z,27.77
2019-02-08T08:48:41.694Z,27.78
2019-02-08T08:49:41.509Z,27.77
2019-02-08T08:50:41.514Z,27.72
2019-02-08T08:51:41.517Z,27.81
2019-02-08T08:52:41.521Z,27.72
2019-02-08T08:53:41.525Z,27.75
2019-02-08T08:54:41.578Z,27.74
2019-02-08T08:55:42.429Z,27.69
2019-02-08T08:56:41.536Z,27.70
2019-02-08T08:57:41.539Z,27.77
2019-02-08T08:58:41.542Z,27.78
2019-02-08T08:59:41.553Z,27.77
2019-02-08T09:00:41.550Z,27.77
2019-02-08T09:01:41.602Z,27.78
2019-02-08T09:02:41.604Z,27.75
2019-02-08T09:03:41.559Z,27.74
2019-02-08T09:04:41.881Z,27.75
2019-02-08T09:05:41.567Z,27.82
2019-02-08T09:06:41.570Z,27.70
2019-02-08T09:07:41.573Z,27.82
2019-02-08T09:08:41.577Z,27.81
2019-02-08T09:09:41.682Z,27.78
2019-02-08T09:10:41.581Z,27.82
2019-02-08T09:11:41.587Z,27.78
2019-02-08T09:12:41.588Z,27.79
2019-02-08T09:13:41.594Z,27.72
2019-02-08T09:14:41.597Z,27.82
2019-02-08T09:15:41.602Z,27.81
2019-02-08T09:16:41.604Z,27.70
2019-02-08T09:17:41.708Z,27.77
2019-02-08T09:18:41.610Z,27.78
2019-02-08T09:19:41.614Z,27.84
2019-02-08T09:20:41.618Z,27.84
2019-02-08T09:21:41.626Z,27.74
2019-02-08T09:22:41.623Z,27.85
2019-02-08T09:23:41.628Z,27.84
2019-02-08T09:24:41.630Z,27.94
2019-02-08T09:25:41.636Z,27.88
2019-02-08T09:26:41.638Z,27.90
2019-02-08T09:27:41.642Z,27.85
2019-02-08T09:28:41.699Z,27.81
2019-02-08T09:29:42.731Z,27.82
2019-02-08T09:30:41.703Z,27.90
2019-02-08T09:31:41.657Z,27.94
2019-02-08T09:32:41.660Z,27.99
2019-02-08T09:33:41.664Z,27.88
2019-02-08T09:34:41.817Z,27.87
2019-02-08T09:35:41.671Z,27.94
2019-02-08T09:36:47.411Z,27.87
2019-02-08T09:37:41.685Z,27.88
2019-02-08T09:38:41.686Z,27.90
2019-02-08T09:39:41.690Z,27.94
2019-02-08T09:40:41.689Z,27.97
2019-02-08T09:41:41.695Z,27.88
2019-02-08T09:42:41.695Z,27.88
2019-02-08T09:43:41.699Z,27.93
2019-02-08T09:44:41.703Z,27.99
2019-02-08T09:45:41.706Z,27.88
2019-02-08T09:46:41.711Z,27.93
2019-02-08T09:47:41.713Z,27.93
2019-02-08T09:48:41.718Z,27.94
2019-02-08T09:49:41.720Z,27.93
2019-02-08T09:50:41.724Z,27.85
2019-02-08T09:51:47.124Z,27.93
2019-02-08T09:52:41.732Z,27.90
2019-02-08T09:53:41.735Z,27.94
2019-02-08T09:54:41.741Z,27.94
2019-02-08T09:55:41.743Z,27.85
2019-02-08T09:56:41.746Z,27.90
2019-02-08T09:57:41.750Z,27.94
2019-02-08T09:58:41.852Z,27.88
2019-02-08T09:59:41.811Z,27.92
2019-02-08T10:00:41.826Z,27.93
2019-02-08T10:01:41.770Z,27.88
2019-02-08T10:02:42.171Z,27.99
2019-02-08T10:03:42.020Z,27.92
2019-02-08T10:04:41.774Z,27.85
2019-02-08T10:05:41.879Z,27.87
2019-02-08T10:06:41.829Z,27.88
2019-02-08T10:07:41.783Z,27.85
2019-02-08T10:08:41.888Z,27.88
2019-02-08T10:09:41.790Z,27.94
2019-02-08T10:10:41.854Z,27.90
2019-02-08T10:11:41.799Z,27.90
2019-02-08T10:12:41.808Z,27.88
2019-02-08T10:13:41.806Z,27.87
2019-02-08T10:14:41.808Z,27.87
2019-02-08T10:15:41.863Z,27.90
2019-02-08T10:16:41.816Z,27.92
2019-02-08T10:17:41.818Z,27.93
2019-02-08T10:18:41.821Z,27.93
2019-02-08T10:19:41.828Z,27.93
2019-02-08T10:20:41.831Z,27.94
2019-02-08T10:21:41.835Z,27.93
2019-02-08T10:22:41.838Z,27.92
2019-02-08T10:23:41.842Z,27.97
2019-02-08T10:24:41.846Z,27.90
2019-02-08T10:25:41.851Z,27.94
2019-02-08T10:26:41.851Z,27.88
2019-02-08T10:27:41.863Z,27.94
2019-02-08T10:28:41.860Z,27.85
2019-02-08T10:29:41.864Z,27.93
2019-02-08T10:30:41.869Z,27.87
2019-02-08T10:31:41.869Z,27.87
2019-02-08T10:32:41.874Z,27.94
2019-02-08T10:33:41.932Z,27.93
2019-02-08T10:34:41.880Z,27.92
2019-02-08T10:35:41.936Z,27.92
2019-02-08T10:36:41.938Z,27.94
2019-02-08T10:37:41.893Z,27.94
2019-02-08T10:38:42.045Z,27.99
2019-02-08T10:39:41.898Z,27.99
2019-02-08T10:40:41.952Z,27.88
2019-02-08T10:41:41.906Z,27.90
2019-02-08T10:42:41.909Z,27.94
2019-02-08T10:43:42.012Z,27.93
2019-02-08T10:44:41.917Z,27.96
2019-02-08T10:45:41.971Z,27.96
2019-02-08T10:46:41.923Z,27.88
2019-02-08T10:47:41.928Z,27.93
2019-02-08T10:48:42.034Z,27.96
2019-02-08T10:49:41.936Z,27.96
2019-02-08T10:50:41.938Z,27.90
2019-02-08T10:51:41.941Z,27.92
2019-02-08T10:52:41.945Z,27.97
2019-02-08T10:53:41.951Z,27.92
2019-02-08T10:54:42.002Z,27.92
2019-02-08T10:55:41.952Z,27.92
2019-02-08T10:56:41.958Z,27.82
2019-02-08T10:57:41.971Z,27.90
2019-02-08T10:58:42.015Z,27.85
2019-02-08T10:59:42.020Z,27.87
2019-02-08T11:00:41.978Z,27.90
2019-02-08T11:01:42.281Z,27.92
2019-02-08T11:02:41.983Z,27.88
2019-02-08T11:03:42.086Z,27.87
2019-02-08T11:04:41.986Z,27.90
2019-02-08T11:05:41.992Z,27.90
2019-02-08T11:06:41.996Z,27.96
2019-02-08T11:07:42.004Z,27.92
2019-02-08T11:08:42.002Z,27.94
2019-02-08T11:09:42.057Z,27.85
2019-02-08T11:10:42.009Z,27.84
2019-02-08T11:11:42.115Z,27.84
2019-02-08T11:12:42.018Z,27.85
2019-02-08T11:13:42.072Z,27.81
2019-02-08T11:14:42.026Z,27.78
2019-02-08T11:15:42.075Z,27.81
2019-02-08T11:16:42.028Z,27.85
2019-02-08T11:17:42.033Z,27.82
2019-02-08T11:18:42.037Z,27.85
2019-02-08T11:19:42.041Z,27.85
2019-02-08T11:20:42.045Z,27.87
2019-02-08T11:21:42.048Z,27.81
2019-02-08T11:22:42.051Z,27.72
2019-02-08T11:23:42.057Z,27.77
2019-02-08T11:24:42.058Z,27.85
2019-02-08T11:25:42.060Z,27.92
2019-02-08T11:26:42.065Z,27.75
2019-02-08T11:27:42.070Z,27.72
2019-02-08T11:28:42.222Z,27.92
2019-02-08T11:29:42.076Z,27.90
2019-02-08T11:30:42.079Z,27.85
2019-02-08T11:31:42.187Z,27.85
2019-02-08T11:32:43.486Z,27.97
2019-02-08T11:33:42.191Z,27.85
2019-02-08T11:34:42.093Z,27.92
2019-02-08T11:35:42.096Z,27.82
2019-02-08T11:36:42.103Z,27.69
2019-02-08T11:37:42.103Z,27.87
2019-02-08T11:38:42.106Z,27.77
2019-02-08T11:39:42.161Z,27.81
2019-02-08T11:40:42.115Z,27.75
2019-02-08T11:41:42.118Z,27.78
2019-02-08T11:42:42.121Z,27.77
2019-02-08T11:43:42.131Z,27.72
2019-02-08T11:44:42.132Z,27.78
2019-02-08T11:45:42.183Z,27.78
2019-02-08T11:46:42.135Z,27.81
2019-02-08T11:47:42.138Z,27.81
2019-02-08T11:48:42.190Z,27.75
2019-02-08T11:49:42.148Z,27.72
2019-02-08T11:50:42.197Z,27.81
2019-02-08T11:51:42.152Z,27.70
2019-02-08T11:52:42.156Z,27.79
2019-02-08T11:53:42.159Z,27.77
2019-02-08T11:54:42.169Z,27.70
2019-02-08T11:55:42.170Z,27.69
2019-02-08T11:56:42.170Z,27.84
2019-02-08T11:57:42.174Z,27.67
2019-02-08T11:58:42.226Z,27.70
2019-02-08T11:59:42.180Z,27.72
2019-02-08T12:00:42.183Z,27.72
2019-02-08T12:01:42.187Z,27.66
2019-02-08T12:02:42.190Z,27.62
2019-02-08T12:03:42.193Z,27.66
2019-02-08T12:04:42.247Z,27.75
2019-02-08T12:05:42.201Z,27.65
2019-02-08T12:06:42.212Z,27.72
2019-02-08T12:07:42.212Z,27.66
2019-02-08T12:08:42.212Z,27.75
2019-02-08T12:09:42.215Z,27.65
2019-02-08T12:10:42.221Z,27.74
2019-02-08T12:11:42.272Z,27.67
2019-02-08T12:12:42.225Z,27.70
2019-02-08T12:13:42.230Z,27.67
2019-02-08T12:14:42.284Z,27.66
2019-02-08T12:15:42.284Z,27.65
2019-02-08T12:16:42.239Z,27.60
2019-02-08T12:17:42.242Z,27.65
2019-02-08T12:18:42.245Z,27.54
2019-02-08T12:19:42.248Z,27.63
2019-02-08T12:20:42.351Z,27.51
2019-02-08T12:21:42.256Z,27.63
2019-02-08T12:22:42.259Z,27.54
2019-02-08T12:23:42.413Z,27.60
2019-02-08T12:24:42.264Z,27.57
2019-02-08T12:25:42.270Z,27.59
2019-02-08T12:26:42.271Z,27.50
2019-02-08T12:27:42.274Z,27.65
2019-02-08T12:28:42.281Z,27.57
2019-02-08T12:29:42.286Z,27.55
2019-02-08T12:30:42.290Z,27.51
2019-02-08T12:31:42.290Z,27.57
2019-02-08T12:32:42.392Z,27.55
2019-02-08T12:33:42.296Z,27.55
2019-02-08T12:34:42.301Z,27.54
2019-02-08T12:35:42.353Z,27.60
2019-02-08T12:36:42.309Z,27.54
2019-02-08T12:37:42.309Z,27.51
2019-02-08T12:38:42.312Z,27.50
2019-02-08T12:39:42.316Z,27.51
2019-02-08T12:40:42.321Z,27.62
2019-02-08T12:41:42.323Z,27.49
2019-02-08T12:42:42.327Z,27.50
2019-02-08T12:43:42.330Z,27.50
2019-02-08T12:44:42.335Z,27.47
2019-02-08T12:45:42.439Z,27.44
2019-02-08T12:46:42.389Z,27.46
2019-02-08T12:47:42.357Z,27.43
2019-02-08T12:48:42.350Z,27.46
2019-02-08T12:49:42.350Z,27.34
2019-02-08T12:50:42.351Z,27.41
2019-02-08T12:51:42.406Z,27.44
2019-02-08T12:52:42.363Z,27.39